createdAt,value
2023-01-11T00:02:06.675Z,101014.67
2023-01-11T00:04:38.479Z,101015.42
2023-01-11T00:07:10.352Z,101011.83
2023-01-11T00:09:42.261Z,101017.05
2023-01-11T00:12:15.112Z,101013.89
2023-01-11T00:14:46.980Z,101006.29
2023-01-11T00:17:18.925Z,101004.41
2023-01-11T00:19:50.713Z,101003.42
2023-01-11T00:22:22.556Z,100999.87
2023-01-11T00:24:54.437Z,100997.76
2023-01-11T00:27:26.287Z,100997.04
2023-01-11T00:29:58.126Z,100990.41
2023-01-11T00:32:30.018Z,100991.98
2023-01-11T00:35:01.900Z,100991.61
2023-01-11T00:37:33.704Z,100992.27
2023-01-11T00:40:05.845Z,100995.36
2023-01-11T00:43:01.863Z,100995.67
2023-01-11T00:45:51.502Z,100998.78
2023-01-11T00:48:23.384Z,100997.36
2023-01-11T00:50:58.223Z,100998.66
2023-01-11T00:53:30.038Z,101002.48
2023-01-11T00:56:01.839Z,101000.18
2023-01-11T00:58:33.846Z,101001.68
2023-01-11T01:01:09.826Z,100994.02
2023-01-11T01:03:41.708Z,100992.19
2023-01-11T01:06:13.517Z,100982.70
2023-01-11T01:08:45.434Z,100981.80
2023-01-11T01:11:17.551Z,100977.75
2023-01-11T01:14:07.180Z,100983.91
2023-01-11T01:16:39.413Z,100977.13
2023-01-11T01:19:11.303Z,100979.78
2023-01-11T01:21:43.335Z,100984.55
2023-01-11T01:24:15.204Z,100980.80
2023-01-11T01:26:47.009Z,100976.75
2023-01-11T01:29:18.968Z,100974.98
2023-01-11T01:31:51.111Z,100973.64
2023-01-11T01:34:22.982Z,100968.35
2023-01-11T01:36:54.806Z,100965.92
2023-01-11T01:39:26.626Z,100963.77
2023-01-11T01:41:58.554Z,100959.02
2023-01-11T01:44:55.741Z,100959.80
2023-01-11T01:47:32.300Z,100963.00
2023-01-11T01:50:14.182Z,100963.80
2023-01-11T01:52:49.320Z,100966.88
2023-01-11T01:55:27.553Z,100961.36
2023-01-11T01:58:01.973Z,100953.02
2023-01-11T02:00:39.029Z,100944.70
2023-01-11T02:03:15.287Z,100940.40
2023-01-11T02:05:49.087Z,100933.17
2023-01-11T02:08:28.681Z,100931.22
2023-01-11T02:11:01.521Z,100925.36
2023-01-11T02:13:46.070Z,100916.92
2023-01-11T02:16:18.155Z,100911.88
2023-01-11T02:18:50.072Z,100908.58
2023-01-11T02:21:36.472Z,100906.27
2023-01-11T02:24:29.618Z,100904.16
2023-01-11T02:27:25.605Z,100903.73
2023-01-11T02:30:14.821Z,100898.26
2023-01-11T02:32:58.773Z,100897.58
2023-01-11T02:35:40.233Z,100898.32
2023-01-11T02:38:21.515Z,100896.08
2023-01-11T02:40:58.281Z,100894.55
2023-01-11T02:43:52.148Z,100894.20
2023-01-11T02:46:31.201Z,100890.58
2023-01-11T02:49:13.230Z,100883.18
2023-01-11T02:51:50.115Z,100882.53
2023-01-11T02:54:24.224Z,100880.44
2023-01-11T02:57:00.305Z,100876.48
2023-01-11T02:59:36.108Z,100873.54
2023-01-11T03:02:08.047Z,100872.73
2023-01-11T03:04:40.279Z,100874.13
2023-01-11T03:07:29.923Z,100870.96
2023-01-11T03:10:17.010Z,100860.09
2023-01-11T03:12:58.270Z,100856.43
2023-01-11T03:15:42.994Z,100847.74
2023-01-11T03:18:28.484Z,100843.45
2023-01-11T03:21:09.046Z,100840.36
2023-01-11T03:23:49.262Z,100834.25
2023-01-11T03:26:32.631Z,100826.80
2023-01-11T03:29:12.613Z,100825.60
2023-01-11T03:31:52.624Z,100822.36
2023-01-11T03:34:32.666Z,100823.61
2023-01-11T03:37:09.133Z,100815.91
2023-01-11T03:39:45.551Z,100808.59
2023-01-11T03:42:22.279Z,100802.69
2023-01-11T03:44:58.638Z,100800.09
2023-01-11T03:47:34.222Z,100793.22
2023-01-11T03:50:15.516Z,100789.01
2023-01-11T03:52:47.698Z,100780.66
2023-01-11T03:55:20.436Z,100775.80
2023-01-11T03:57:55.109Z,100762.33
2023-01-11T04:00:32.528Z,100759.42
2023-01-11T04:03:04.824Z,100759.69
2023-01-11T04:05:38.579Z,100754.48
2023-01-11T04:08:10.469Z,100752.73
2023-01-11T04:10:42.456Z,100756.63
2023-01-11T04:13:14.381Z,100754.38
2023-01-11T04:15:46.425Z,100749.52
2023-01-11T04:18:18.574Z,100751.34
2023-01-11T04:20:50.405Z,100742.55
2023-01-11T04:23:22.644Z,100736.35
2023-01-11T04:25:54.457Z,100734.73
2023-01-11T04:28:26.339Z,100733.58
2023-01-11T04:30:58.174Z,100734.17
2023-01-11T04:33:29.990Z,100736.15
2023-01-11T04:36:04.881Z,100737.88
2023-01-11T04:38:37.797Z,100734.64
2023-01-11T04:41:27.267Z,100731.09
2023-01-11T04:43:59.365Z,100730.83
2023-01-11T04:46:31.230Z,100730.31
2023-01-11T04:49:03.036Z,100731.59
2023-01-11T04:51:34.874Z,100728.21
2023-01-11T04:54:08.581Z,100723.16
2023-01-11T04:56:40.376Z,100719.75
2023-01-11T04:59:12.223Z,100713.13
2023-01-11T05:01:44.388Z,100710.23
2023-01-11T05:04:16.260Z,100704.34
2023-01-11T05:06:48.441Z,100701.45
2023-01-11T05:09:21.368Z,100692.70
2023-01-11T05:11:53.173Z,100689.06
2023-01-11T05:14:25.250Z,100687.62
2023-01-11T05:16:57.228Z,100687.60
2023-01-11T05:19:29.272Z,100699.91
2023-01-11T05:22:01.035Z,100699.00
2023-01-11T05:24:32.885Z,100691.70
2023-01-11T05:27:04.880Z,100688.39
2023-01-11T05:29:36.666Z,100692.05
2023-01-11T05:32:12.250Z,100682.73
2023-01-11T05:34:44.188Z,100680.51
2023-01-11T05:37:16.012Z,100678.02
2023-01-11T05:39:48.213Z,100675.84
2023-01-11T05:42:20.207Z,100671.92
2023-01-11T05:45:09.458Z,100662.73
2023-01-11T05:47:41.283Z,100658.33
2023-01-11T05:50:27.228Z,100660.95
2023-01-11T05:52:59.048Z,100662.19
2023-01-11T05:55:30.864Z,100660.48
2023-01-11T05:58:02.676Z,100652.09
2023-01-11T06:00:34.977Z,100649.12
2023-01-11T06:03:07.113Z,100653.17
2023-01-11T06:05:39.438Z,100654.95
2023-01-11T06:08:13.376Z,100650.83
2023-01-11T06:10:46.885Z,100644.64
2023-01-11T06:13:27.903Z,100646.25
2023-01-11T06:16:02.830Z,100640.58
2023-01-11T06:18:36.611Z,100635.09
2023-01-11T06:21:11.199Z,100639.70
2023-01-11T06:23:45.216Z,100641.91
2023-01-11T06:26:19.409Z,100645.10
2023-01-11T06:28:52.105Z,100641.90
2023-01-11T06:31:25.042Z,100639.87
2023-01-11T06:33:57.061Z,100640.46
2023-01-11T06:36:29.950Z,100639.80
2023-01-11T06:39:01.818Z,100641.73
2023-01-11T06:41:34.693Z,100644.60
2023-01-11T06:44:07.214Z,100644.80
2023-01-11T06:46:39.117Z,100640.38
2023-01-11T06:49:11.824Z,100639.18
2023-01-11T06:51:43.827Z,100638.39
2023-01-11T06:54:21.949Z,100637.58
2023-01-11T06:56:53.912Z,100637.16
2023-01-11T06:59:26.132Z,100633.84
2023-01-11T07:01:59.095Z,100627.34
2023-01-11T07:04:31.235Z,100627.48
2023-01-11T07:07:03.237Z,100630.71
2023-01-11T07:09:35.157Z,100629.20
2023-01-11T07:12:09.116Z,100628.29
2023-01-11T07:14:41.123Z,100622.30
2023-01-11T07:17:13.030Z,100622.89
2023-01-11T07:19:45.206Z,100621.19
2023-01-11T07:22:17.239Z,100614.21
2023-01-11T07:24:49.010Z,100614.48
2023-01-11T07:27:21.159Z,100616.02
2023-01-11T07:29:53.992Z,100610.58
2023-01-11T07:32:25.854Z,100609.80
2023-01-11T07:34:58.608Z,100598.21
2023-01-11T07:37:32.781Z,100598.64
2023-01-11T07:40:12.746Z,100593.17
2023-01-11T07:43:06.485Z,100590.69
2023-01-11T07:45:45.766Z,100591.36
2023-01-11T07:48:24.865Z,100591.93
2023-01-11T07:50:57.462Z,100592.00
2023-01-11T07:53:29.325Z,100591.94
2023-01-11T07:56:02.049Z,100596.92
2023-01-11T07:58:33.986Z,100601.34
2023-01-11T08:01:05.930Z,100599.29
2023-01-11T08:03:38.052Z,100597.42
2023-01-11T08:06:10.570Z,100593.34
2023-01-11T08:08:42.563Z,100593.80
2023-01-11T08:11:32.347Z,100586.32
2023-01-11T08:14:36.830Z,100588.34
2023-01-11T08:18:06.996Z,100586.51
2023-01-11T08:20:42.185Z,100590.38
2023-01-11T08:23:14.203Z,100585.04
2023-01-11T08:25:46.096Z,100577.99
2023-01-11T08:28:19.740Z,100578.29
2023-01-11T08:30:51.730Z,100577.48
2023-01-11T08:33:23.644Z,100571.87
2023-01-11T08:35:55.549Z,100568.81
2023-01-11T08:38:27.298Z,100567.70
2023-01-11T08:40:59.290Z,100566.63
2023-01-11T08:43:31.725Z,100568.09
2023-01-11T08:46:03.735Z,100568.22
2023-01-11T08:48:35.821Z,100570.04
2023-01-11T08:51:08.339Z,100576.15
2023-01-11T08:53:40.373Z,100577.46
2023-01-11T08:56:12.486Z,100583.73
2023-01-11T08:58:44.294Z,100588.91
2023-01-11T09:01:18.688Z,100581.24
2023-01-11T09:03:50.528Z,100584.67
2023-01-11T09:06:22.664Z,100585.67
2023-01-11T09:08:54.897Z,100580.15
2023-01-11T09:11:44.228Z,100580.45
2023-01-11T09:14:16.015Z,100580.55
2023-01-11T09:16:48.936Z,100577.01
2023-01-11T09:19:20.782Z,100573.75
2023-01-11T09:21:53.487Z,100567.91
2023-01-11T09:24:25.386Z,100568.73
2023-01-11T09:26:58.286Z,100569.50
2023-01-11T09:29:30.235Z,100569.47
2023-01-11T09:32:02.145Z,100568.05
2023-01-11T09:34:35.024Z,100564.13
2023-01-11T09:37:08.015Z,100557.75
2023-01-11T09:39:41.409Z,100558.21
2023-01-11T09:42:37.595Z,100554.47
2023-01-11T09:45:18.713Z,100546.52
2023-01-11T09:48:01.138Z,100546.48
2023-01-11T09:50:40.100Z,100545.30
2023-01-11T09:53:19.694Z,100543.30
2023-01-11T09:55:54.228Z,100543.34
2023-01-11T09:58:52.070Z,100543.39
2023-01-11T10:01:31.252Z,100541.98
2023-01-11T10:04:37.803Z,100534.47
2023-01-11T10:07:37.592Z,100523.86
2023-01-11T10:18:33.923Z,100521.45
2023-01-11T10:19:39.785Z,100520.45
2023-01-11T10:22:17.993Z,100511.95
2023-01-11T10:24:56.387Z,100501.94
2023-01-11T10:27:35.876Z,100497.35
2023-01-11T10:30:33.517Z,100490.67
2023-01-11T10:33:24.987Z,100482.71
2023-01-11T10:36:27.583Z,100483.23
2023-01-11T10:39:21.853Z,100474.39
2023-01-11T10:42:05.160Z,100475.29
2023-01-11T10:44:47.273Z,100473.42
2023-01-11T10:47:24.361Z,100471.78
2023-01-11T10:50:04.212Z,100469.64
2023-01-11T10:52:44.695Z,100473.80
2023-01-11T10:55:24.231Z,100465.74
2023-01-11T10:58:12.213Z,100460.86
2023-01-11T11:01:01.138Z,100457.64
2023-01-11T11:03:50.214Z,100456.98
2023-01-11T11:06:34.501Z,100457.73
2023-01-11T11:09:15.102Z,100448.31
2023-01-11T11:11:53.320Z,100448.73
2023-01-11T11:14:31.774Z,100450.90
2023-01-11T11:17:17.121Z,100442.54
2023-01-11T11:19:49.046Z,100435.31
2023-01-11T11:22:21.278Z,100425.36
2023-01-11T11:25:02.396Z,100419.77
2023-01-11T11:27:39.331Z,100411.83
2023-01-11T11:30:15.768Z,100405.97
2023-01-11T11:32:57.904Z,100409.70
2023-01-11T11:35:42.153Z,100401.23
2023-01-11T11:38:25.051Z,100405.48
2023-01-11T11:41:09.112Z,100400.07
2023-01-11T11:43:42.359Z,100398.81
2023-01-11T11:46:27.163Z,100394.33
2023-01-11T11:52:17.810Z,100379.96
2023-01-11T11:54:57.106Z,100378.66
2023-01-11T11:57:32.025Z,100372.98
2023-01-11T12:00:35.471Z,100369.84
2023-01-11T12:03:14.913Z,100359.73
2023-01-11T12:05:56.126Z,100351.98
2023-01-11T12:08:29.085Z,100350.19
2023-01-11T12:11:03.594Z,100342.23
2023-01-11T12:13:37.503Z,100337.38
2023-01-11T12:16:20.401Z,100330.36
2023-01-11T12:18:52.878Z,100331.20
2023-01-11T12:21:28.176Z,100330.86
2023-01-11T12:24:19.251Z,100324.95
2023-01-11T12:27:02.726Z,100323.25
2023-01-11T12:30:14.961Z,100320.72
2023-01-11T12:33:06.328Z,100318.50
2023-01-11T12:35:48.787Z,100312.68
2023-01-11T12:38:39.337Z,100311.21
2023-01-11T12:41:44.773Z,100310.07
2023-01-11T12:44:26.944Z,100303.11
2023-01-11T12:47:17.971Z,100299.59
2023-01-11T12:49:58.860Z,100294.91
2023-01-11T12:52:46.727Z,100288.47
2023-01-11T12:55:44.505Z,100286.05
2023-01-11T12:58:23.642Z,100285.55
2023-01-11T13:01:12.846Z,100286.77
2023-01-11T13:04:12.193Z,100286.21
2023-01-11T13:06:56.823Z,100288.25
2023-01-11T13:09:41.038Z,100285.86
2023-01-11T13:12:22.783Z,100284.63
2023-01-11T13:15:19.443Z,100286.04
2023-01-11T13:17:57.475Z,100285.24
2023-01-11T13:20:59.291Z,100278.48
2023-01-11T13:23:42.013Z,100277.73
2023-01-11T13:26:24.875Z,100282.50
2023-01-11T13:29:42.291Z,100275.20
2023-01-11T13:32:19.576Z,100271.08
2023-01-11T13:34:56.363Z,100269.59
2023-01-11T13:37:33.907Z,100269.07
2023-01-11T13:40:16.823Z,100267.40
2023-01-11T13:42:54.544Z,100264.98
2023-01-11T13:45:40.525Z,100265.88
2023-01-11T13:49:02.634Z,100262.91
2023-01-11T13:52:07.934Z,100262.45
2023-01-11T13:54:55.017Z,100253.66
2023-01-11T13:57:35.334Z,100249.91
2023-01-11T14:00:17.711Z,100252.84
2023-01-11T14:02:53.835Z,100251.31
2023-01-11T14:05:29.325Z,100250.61
2023-01-11T14:08:22.576Z,100251.44
2023-01-11T14:11:05.824Z,100250.55
2023-01-11T14:14:07.456Z,100249.46
2023-01-11T14:16:51.513Z,100246.58
2023-01-11T14:19:29.673Z,100240.89
2023-01-11T14:22:09.860Z,100242.29
2023-01-11T14:24:49.061Z,100238.95
2023-01-11T14:27:40.124Z,100238.04
2023-01-11T14:30:38.443Z,100235.81
2023-01-11T14:33:28.169Z,100242.52
2023-01-11T14:36:22.292Z,100240.94
2023-01-11T14:39:16.871Z,100243.02
2023-01-11T14:42:25.737Z,100244.84
2023-01-11T14:45:22.395Z,100241.73
2023-01-11T14:48:15.790Z,100236.05
2023-01-11T14:50:57.884Z,100232.05
2023-01-11T14:53:37.034Z,100232.88
2023-01-11T14:56:50.222Z,100231.77
2023-01-11T14:59:40.014Z,100224.48
2023-01-11T15:02:30.581Z,100223.96
2023-01-11T15:05:11.152Z,100225.05
2023-01-11T15:07:44.528Z,100222.22
2023-01-11T15:10:47.931Z,100218.38
2023-01-11T15:13:23.781Z,100219.58
2023-01-11T15:16:27.239Z,100220.85
2023-01-11T15:18:59.793Z,100217.73
2023-01-11T15:21:31.732Z,100217.34
2023-01-11T15:24:03.589Z,100216.29
2023-01-11T15:26:50.663Z,100215.70
2023-01-11T15:29:38.531Z,100212.14
2023-01-11T15:32:18.912Z,100207.38
2023-01-11T15:34:51.001Z,100204.74
2023-01-11T15:37:35.374Z,100204.68
2023-01-11T15:40:17.289Z,100197.88
2023-01-11T15:43:24.844Z,100199.73
2023-01-11T15:46:32.636Z,100200.48
2023-01-11T15:49:35.048Z,100198.14
2023-01-11T15:52:37.098Z,100202.27
2023-01-11T15:55:42.379Z,100210.27
2023-01-11T15:58:45.913Z,100212.39
2023-01-11T16:01:24.918Z,100211.51
2023-01-11T16:04:02.051Z,100207.95
2023-01-11T16:06:44.635Z,100209.06
2023-01-11T16:09:28.772Z,100207.38
2023-01-11T16:12:16.064Z,100207.84
2023-01-11T16:15:10.221Z,100204.88
2023-01-11T16:17:48.281Z,100202.27
2023-01-11T16:20:28.006Z,100203.31
2023-01-11T16:23:01.757Z,100203.73
2023-01-11T16:25:35.914Z,100207.23
2023-01-11T16:28:08.814Z,100213.91
2023-01-11T16:30:42.335Z,100212.58
2023-01-11T16:33:18.354Z,100210.55
2023-01-11T16:35:50.521Z,100206.89
2023-01-11T16:38:24.498Z,100215.63
2023-01-11T16:40:58.524Z,100209.43
2023-01-11T16:43:34.137Z,100207.91
2023-01-11T16:46:06.468Z,100208.50
2023-01-11T16:48:38.414Z,100209.77
2023-01-11T16:51:16.433Z,100214.45
2023-01-11T16:53:58.090Z,100214.52
2023-01-11T16:56:31.699Z,100212.59
2023-01-11T16:59:19.681Z,100214.79
2023-01-11T17:01:56.541Z,100219.71
2023-01-11T17:04:33.533Z,100223.05
2023-01-11T17:07:20.541Z,100222.45
2023-01-11T17:09:52.936Z,100221.72
2023-01-11T17:12:27.323Z,100220.06
2023-01-11T17:15:16.753Z,100224.88
2023-01-11T17:17:48.785Z,100226.59
2023-01-11T17:20:33.488Z,100232.22
2023-01-11T17:23:06.387Z,100234.89
2023-01-11T17:25:44.945Z,100233.83
2023-01-11T17:28:20.939Z,100233.89
2023-01-11T17:30:55.189Z,100230.97
2023-01-11T17:33:33.469Z,100229.89
2023-01-11T17:36:07.621Z,100233.64
2023-01-11T17:38:41.374Z,100237.60
2023-01-11T17:41:27.844Z,100239.38
2023-01-11T17:44:18.352Z,100237.20
2023-01-11T17:46:50.778Z,100236.91
2023-01-11T17:49:25.573Z,100235.65
2023-01-11T17:51:57.629Z,100234.60
2023-01-11T17:54:30.634Z,100236.41
2023-01-11T17:57:03.781Z,100240.81
2023-01-11T17:59:35.712Z,100239.94
2023-01-11T18:02:14.981Z,100238.00
2023-01-11T18:04:47.405Z,100242.83
2023-01-11T18:07:20.554Z,100246.30
2023-01-11T18:09:59.596Z,100241.08
2023-01-11T18:12:35.188Z,100240.53
2023-01-11T18:15:19.227Z,100237.71
2023-01-11T18:17:56.703Z,100242.11
2023-01-11T18:20:39.646Z,100244.70
2023-01-11T18:23:24.879Z,100245.08
2023-01-11T18:26:27.678Z,100246.48
2023-01-11T18:29:00.029Z,100253.77
2023-01-11T18:31:32.377Z,100250.25
2023-01-11T18:34:08.169Z,100254.36
2023-01-11T18:36:40.028Z,100251.67
2023-01-11T18:39:13.596Z,100251.52
2023-01-11T18:42:02.909Z,100249.74
2023-01-11T18:44:35.313Z,100253.39
2023-01-11T18:47:16.314Z,100255.80
2023-01-11T18:49:48.906Z,100253.94
2023-01-11T18:52:21.833Z,100256.64
2023-01-11T18:54:54.364Z,100258.54
2023-01-11T18:57:26.401Z,100255.46
2023-01-11T18:59:59.752Z,100262.05
2023-01-11T19:02:40.489Z,100265.41
2023-01-11T19:05:16.768Z,100267.20
2023-01-11T19:07:49.334Z,100269.88
2023-01-11T19:10:50.854Z,100270.50
2023-01-11T19:13:23.132Z,100272.20
2023-01-11T19:15:54.898Z,100274.02
2023-01-11T19:18:27.422Z,100277.19
2023-01-11T19:21:06.591Z,100283.61
2023-01-11T19:23:38.624Z,100284.52
2023-01-11T19:26:10.812Z,100285.09
2023-01-11T19:31:22.509Z,100276.21
2023-01-11T19:33:54.357Z,100281.95
2023-01-11T19:36:31.978Z,100287.20
2023-01-11T19:39:03.939Z,100292.35
2023-01-11T19:41:49.935Z,100295.47
2023-01-11T19:44:22.044Z,100295.84
2023-01-11T19:47:09.652Z,100304.68
2023-01-11T19:49:43.609Z,100304.00
2023-01-11T19:52:19.240Z,100314.45
2023-01-11T19:54:51.873Z,100322.83
2023-01-11T19:57:25.355Z,100321.98
2023-01-11T19:59:57.205Z,100326.84
2023-01-11T20:02:29.330Z,100332.98
2023-01-11T20:05:01.465Z,100332.52
2023-01-11T20:07:33.814Z,100334.10
2023-01-11T20:10:35.271Z,100334.70
2023-01-11T20:13:07.225Z,100344.70
2023-01-11T20:15:40.611Z,100346.33
2023-01-11T20:18:12.485Z,100348.09
2023-01-11T20:20:44.332Z,100351.54
2023-01-11T20:23:16.316Z,100352.08
2023-01-11T20:25:48.171Z,100356.17
2023-01-11T20:28:20.426Z,100356.69
2023-01-11T20:30:52.312Z,100352.23
2023-01-11T20:33:24.681Z,100352.16
2023-01-11T20:35:56.487Z,100353.63
2023-01-11T20:38:29.115Z,100353.02
2023-01-11T20:41:00.938Z,100353.33
2023-01-11T20:43:33.023Z,100349.45
2023-01-11T20:46:05.349Z,100354.85
2023-01-11T20:48:37.433Z,100356.13
2023-01-11T20:51:09.865Z,100360.26
2023-01-11T20:53:41.780Z,100368.17
2023-01-11T20:56:13.859Z,100368.75
2023-01-11T20:58:46.893Z,100368.81
2023-01-11T21:01:19.605Z,100374.70
2023-01-11T21:03:51.767Z,100372.38
2023-01-11T21:06:23.870Z,100370.52
2023-01-11T21:08:58.971Z,100379.11
2023-01-11T21:11:32.219Z,100384.41
2023-01-11T21:14:05.301Z,100384.61
2023-01-11T21:16:37.086Z,100388.54
2023-01-11T21:19:09.173Z,100390.91
2023-01-11T21:21:41.040Z,100395.76
2023-01-11T21:24:16.077Z,100399.54
2023-01-11T21:26:48.508Z,100404.05
2023-01-11T21:29:20.420Z,100406.91
2023-01-11T21:31:52.340Z,100398.00
2023-01-11T21:34:24.366Z,100404.89
2023-01-11T21:36:56.192Z,100402.32
2023-01-11T21:39:28.067Z,100405.70
2023-01-11T21:41:59.922Z,100407.02
2023-01-11T21:44:34.043Z,100411.66
2023-01-11T21:47:08.533Z,100407.92
2023-01-11T21:49:40.397Z,100402.08
2023-01-11T21:52:12.222Z,100408.79
2023-01-11T21:54:44.039Z,100414.38
2023-01-11T21:57:15.843Z,100418.10
2023-01-11T21:59:47.742Z,100423.06
2023-01-11T22:02:19.726Z,100427.48
2023-01-11T22:04:56.458Z,100431.16
2023-01-11T22:07:29.440Z,100438.00
2023-01-11T22:10:05.401Z,100439.65
2023-01-11T22:12:37.912Z,100439.39
2023-01-11T22:15:11.535Z,100438.83
2023-01-11T22:17:43.432Z,100438.13
2023-01-11T22:20:26.025Z,100437.27
2023-01-11T22:22:57.815Z,100442.38
2023-01-11T22:25:29.660Z,100447.84
2023-01-11T22:28:01.490Z,100450.10
2023-01-11T22:30:34.131Z,100454.94
2023-01-11T22:33:08.899Z,100454.52
2023-01-11T22:35:40.991Z,100450.09
2023-01-11T22:38:12.782Z,100452.67
2023-01-11T22:40:44.673Z,100459.67
2023-01-11T22:43:16.457Z,100459.93
2023-01-11T22:45:58.850Z,100467.56
2023-01-11T22:48:31.504Z,100469.95
2023-01-11T22:51:08.025Z,100472.64
2023-01-11T22:53:40.743Z,100468.61
2023-01-11T22:56:14.088Z,100465.92
2023-01-11T22:58:45.919Z,100468.27
2023-01-11T23:01:20.729Z,100469.23
2023-01-11T23:03:53.677Z,100475.49
2023-01-11T23:06:27.761Z,100480.77
2023-01-11T23:08:59.700Z,100476.34
2023-01-11T23:11:50.787Z,100477.01
2023-01-11T23:14:22.940Z,100479.96
2023-01-11T23:16:55.054Z,100476.79
2023-01-11T23:19:26.974Z,100476.42
2023-01-11T23:21:58.983Z,100477.77
2023-01-11T23:24:31.071Z,100480.77
2023-01-11T23:27:03.146Z,100484.48
2023-01-11T23:29:35.664Z,100480.21
2023-01-11T23:32:08.194Z,100478.76
2023-01-11T23:34:40.112Z,100480.75
2023-01-11T23:37:11.951Z,100490.73
2023-01-11T23:39:43.811Z,100487.42
2023-01-11T23:42:27.440Z,100486.38
2023-01-11T23:44:59.919Z,100485.68
2023-01-11T23:47:31.780Z,100489.08
2023-01-11T23:50:03.713Z,100488.38
2023-01-11T23:52:36.069Z,100492.76
2023-01-11T23:55:10.050Z,100487.10
2023-01-11T23:58:02.403Z,100486.45
